Time;durP1;ratioP1;P1;durP2;ratioP2;P2;SDS_P1;SDS_P2;PMS_P1;PMS_P2;Temp;Humidity;BMP_temperature;BMP_pressure;BME280_temperature;BME280_humidity;BME280_pressure;Samples;Min_cycle;Max_cycle;Signal;HPM_P1;HPM_P2
2023/11/18 00:00:38;;;;;;;;;;;;;;;;;;5006440;28;20019;-73
2023/11/18 00:03:05;;;;;;;;;;;;;;;;;;5008794;28;19924;-73
2023/11/18 00:05:31;;;;;;;;;;;;;;;;;;4998531;28;20027;-72
2023/11/18 00:07:57;;;;;;;;;;;;;;;;;;5008253;28;20453;-72
2023/11/18 00:10:23;;;;;;;;;;;;;;;;;;5006115;28;19942;-73
2023/11/18 00:12:49;;;;;;;;;;;;;;;;;;5006483;28;20262;-73
2023/11/18 00:15:15;;;;;;;;;;;;;;;;;;5004018;28;19917;-74
2023/11/18 00:17:41;;;;;;;;;;;;;;;;;;5005136;28;19921;-73
2023/11/18 00:20:12;;;;;;;;;;;;;;;;;;5009017;28;20404;-72
2023/11/18 00:22:38;;;;;;;;;;;;;;;;;;5003066;28;20678;-72
2023/11/18 00:25:10;;;;;;;;;;;;;;;;;;5010577;28;20054;-75
2023/11/18 00:27:37;;;;;;;;;;;;;;;;;;5001439;28;20016;-73
2023/11/18 00:30:04;;;;;;;;;;;;;;;;;;5005606;28;20001;-72
2023/11/18 00:32:31;;;;;;;;;;;;;;;;;;4998794;28;19916;-72
2023/11/18 00:34:57;;;;;;;;;;;;;;;;;;5005948;28;19920;-74
2023/11/18 00:37:23;;;;;;;;;;;;;;;;;;5003221;28;19924;-74
2023/11/18 00:39:49;;;;;;;;;;;;;;;;;;5006318;28;20038;-74
2023/11/18 00:42:15;;;;;;;;;;;;;;;;;;5005775;28;19917;-73
2023/11/18 00:44:41;;;;;;;;;;;;;;;;;;5003571;28;20350;-73
2023/11/18 00:47:08;;;;;;;;;;;;;;;;;;5002961;28;20278;-72
2023/11/18 00:49:34;;;;;;;;;;;;;;;;;;5002577;28;19917;-75
2023/11/18 00:52:00;;;;;;;;;;;;;;;;;;4981736;28;20623;-73
2023/11/18 00:54:26;;;;;;;;;;;;;;;;;;4984790;28;19921;-74
2023/11/18 00:56:52;;;;;;;;;;;;;;;;;;5006748;28;19917;-74
2023/11/18 00:59:18;;;;;;;;;;;;;;;;;;5004248;28;20595;-74
2023/11/18 01:01:44;;;;;;;;;;;;;;;;;;5007707;28;20456;-74
2023/11/18 01:04:10;;;;;;;;;;;;;;;;;;5007040;28;19917;-74
2023/11/18 01:06:36;;;;;;;;;;;;;;;;;;5006467;28;19921;-72
2023/11/18 01:09:02;;;;;;;;;;;;;;;;;;5005415;28;19917;-73
2023/11/18 01:11:29;;;;;;;;;;;;;;;;;;5001824;28;20177;-73
2023/11/18 01:13:55;;;;;;;;;;;;;;;;;;5009050;28;19921;-73
2023/11/18 01:16:21;;;;;;;;;;;;;;;;;;5002079;28;20012;-72
2023/11/18 01:18:48;;;;;;;;;;;;;;;;;;5006975;28;19917;-73
2023/11/18 01:21:17;;;;;;;;;;;;;;;;;;5019891;28;19925;-72
2023/11/18 01:23:44;;;;;;;;;;;;;;;;;;4998129;28;20243;-72
2023/11/18 01:26:12;;;;;;;;;;;;;;;;;;5013192;28;20331;-72
2023/11/18 01:28:41;;;;;;;;;;;;;;;;;;4976965;28;22110;-74
2023/11/18 01:31:09;;;;;;;;;;;;;;;;;;4967138;28;19913;-72
2023/11/18 01:33:36;;;;;;;;;;;;;;;;;;4965904;28;20445;-73
2023/11/18 01:36:03;;;;;;;;;;;;;;;;;;4967607;28;19952;-74
2023/11/18 01:38:30;;;;;;;;;;;;;;;;;;4966299;28;20224;-72
2023/11/18 01:40:56;;;;;;;;;;;;;;;;;;4968957;28;19920;-74
2023/11/18 01:43:22;;;;;;;;;;;;;;;;;;4963707;28;19921;-72
2023/11/18 01:45:48;;;;;;;;;;;;;;;;;;4970549;28;20286;-72
2023/11/18 01:48:15;;;;;;;;;;;;;;;;;;4965921;28;20367;-74
2023/11/18 01:50:41;;;;;;;;;;;;;;;;;;4977894;28;19917;-74
2023/11/18 01:53:07;;;;;;;;;;;;;;;;;;4960388;28;19937;-74
2023/11/18 01:55:34;;;;;;;;;;;;;;;;;;4966464;28;20299;-74
2023/11/18 01:58:02;;;;;;;;;;;;;;;;;;4970975;28;19917;-74
2023/11/18 02:00:30;;;;;;;;;;;;;;;;;;4978495;28;19917;-73
2023/11/18 02:02:57;;;;;;;;;;;;;;;;;;4970939;28;19929;-75
2023/11/18 02:05:23;;;;;;;;;;;;;;;;;;4980586;28;19926;-74
2023/11/18 02:07:49;;;;;;;;;;;;;;;;;;5003256;28;19986;-72
2023/11/18 02:10:15;;;;;;;;;;;;;;;;;;5022176;28;20854;-73
2023/11/18 02:12:41;;;;;;;;;;;;;;;;;;5006578;28;20180;-72
2023/11/18 02:15:12;;;;;;;;;;;;;;;;;;5006669;28;19921;-73
2023/11/18 02:17:38;;;;;;;;;;;;;;;;;;5005275;28;19921;-73
2023/11/18 02:20:10;;;;;;;;;;;;;;;;;;5006312;28;19921;-72
2023/11/18 02:22:36;;;;;;;;;;;;;;;;;;5000788;28;20230;-72
2023/11/18 02:25:06;;;;;;;;;;;;;;;;;;5008434;28;19925;-72
2023/11/18 02:27:32;;;;;;;;;;;;;;;;;;5003309;28;19917;-74
2023/11/18 02:29:58;;;;;;;;;;;;;;;;;;5021937;28;20371;-73
2023/11/18 02:32:24;;;;;;;;;;;;;;;;;;5003847;28;19917;-72
2023/11/18 02:34:51;;;;;;;;;;;;;;;;;;5004059;28;19921;-72
2023/11/18 02:37:17;;;;;;;;;;;;;;;;;;5015160;28;20407;-72
2023/11/18 02:39:43;;;;;;;;;;;;;;;;;;5018003;28;19920;-72
2023/11/18 02:42:09;;;;;;;;;;;;;;;;;;5001044;28;19987;-74
2023/11/18 02:44:35;;;;;;;;;;;;;;;;;;4998067;28;19921;-73
2023/11/18 02:47:01;;;;;;;;;;;;;;;;;;5004640;28;20330;-73
2023/11/18 02:49:27;;;;;;;;;;;;;;;;;;5003422;28;19917;-73
2023/11/18 02:51:53;;;;;;;;;;;;;;;;;;5003527;28;19921;-73
2023/11/18 02:54:19;;;;;;;;;;;;;;;;;;5015128;28;20367;-72
2023/11/18 02:56:45;;;;;;;;;;;;;;;;;;5001805;28;19926;-71
2023/11/18 02:59:11;;;;;;;;;;;;;;;;;;5007036;28;19930;-72
2023/11/18 03:01:39;;;;;;;;;;;;;;;;;;5004714;28;20694;-73
2023/11/18 03:04:05;;;;;;;;;;;;;;;;;;5004569;28;19968;-74
2023/11/18 03:06:32;;;;;;;;;;;;;;;;;;4999732;28;20441;-72
2023/11/18 03:08:58;;;;;;;;;;;;;;;;;;5021266;28;19921;-74
2023/11/18 03:11:24;;;;;;;;;;;;;;;;;;4996275;28;20249;-73
2023/11/18 03:13:50;;;;;;;;;;;;;;;;;;5004142;28;19917;-72
2023/11/18 03:16:16;;;;;;;;;;;;;;;;;;5004834;28;19924;-73
2023/11/18 03:18:42;;;;;;;;;;;;;;;;;;5004364;28;19949;-72
2023/11/18 03:21:08;;;;;;;;;;;;;;;;;;5007458;28;20072;-73
2023/11/18 03:23:34;;;;;;;;;;;;;;;;;;5007411;28;19921;-72
2023/11/18 03:26:00;;;;;;;;;;;;;;;;;;5008922;28;19921;-72
2023/11/18 03:28:26;;;;;;;;;;;;;;;;;;5009129;28;19917;-73
2023/11/18 03:30:53;;;;;;;;;;;;;;;;;;5007139;28;19913;-73
2023/11/18 03:33:19;;;;;;;;;;;;;;;;;;5008847;28;19928;-72
2023/11/18 03:35:45;;;;;;;;;;;;;;;;;;5006033;28;19918;-72
2023/11/18 03:38:12;;;;;;;;;;;;;;;;;;5009329;28;20222;-71
2023/11/18 03:40:38;;;;;;;;;;;;;;;;;;5003869;28;20568;-72
2023/11/18 03:43:04;;;;;;;;;;;;;;;;;;5007665;28;19924;-72
2023/11/18 03:45:30;;;;;;;;;;;;;;;;;;5001035;28;19940;-72
2023/11/18 03:47:56;;;;;;;;;;;;;;;;;;5013127;28;19925;-72
2023/11/18 03:50:22;;;;;;;;;;;;;;;;;;5006009;28;19925;-72
2023/11/18 03:52:48;;;;;;;;;;;;;;;;;;5022964;28;20465;-72
2023/11/18 03:55:14;;;;;;;;;;;;;;;;;;5008912;28;19928;-72
2023/11/18 03:57:40;;;;;;;;;;;;;;;;;;5021314;28;20426;-72
2023/11/18 04:00:06;;;;;;;;;;;;;;;;;;5011177;28;20449;-72
2023/11/18 04:02:34;;;;;;;;;;;;;;;;;;5002849;28;19917;-72
2023/11/18 04:05:00;;;;;;;;;;;;;;;;;;5023037;28;20286;-72
2023/11/18 04:07:26;;;;;;;;;;;;;;;;;;5006449;28;19944;-72
2023/11/18 04:09:53;;;;;;;;;;;;;;;;;;5008110;28;19917;-72
2023/11/18 04:12:19;;;;;;;;;;;;;;;;;;5002072;28;20039;-72
2023/11/18 04:14:45;;;;;;;;;;;;;;;;;;5019765;28;19917;-73
2023/11/18 04:17:11;;;;;;;;;;;;;;;;;;5011223;28;20217;-72
2023/11/18 04:19:38;;;;;;;;;;;;;;;;;;5003873;28;19953;-72
2023/11/18 04:22:04;;;;;;;;;;;;;;;;;;5008290;28;19928;-72
2023/11/18 04:24:30;;;;;;;;;;;;;;;;;;5007904;28;19920;-72
2023/11/18 04:26:57;;;;;;;;;;;;;;;;;;5007101;28;19920;-72
2023/11/18 04:29:23;;;;;;;;;;;;;;;;;;5004016;28;20351;-73
2023/11/18 04:31:49;;;;;;;;;;;;;;;;;;5020358;28;19917;-72
2023/11/18 04:34:16;;;;;;;;;;;;;;;;;;5009451;28;19965;-72
2023/11/18 04:36:42;;;;;;;;;;;;;;;;;;5004842;28;19935;-72
2023/11/18 04:39:11;;;;;;;;;;;;;;;;;;5007921;28;20367;-72
2023/11/18 04:41:37;;;;;;;;;;;;;;;;;;5002048;28;20216;-72
2023/11/18 04:44:03;;;;;;;;;;;;;;;;;;5014874;28;19917;-72
2023/11/18 04:46:29;;;;;;;;;;;;;;;;;;5002394;28;19928;-72
2023/11/18 04:48:56;;;;;;;;;;;;;;;;;;5002931;28;19917;-72
2023/11/18 04:51:25;;;;;;;;;;;;;;;;;;5010315;28;19927;-74
2023/11/18 04:53:51;;;;;;;;;;;;;;;;;;5004821;28;19928;-73
2023/11/18 04:56:18;;;;;;;;;;;;;;;;;;5004674;28;19917;-73
2023/11/18 04:58:46;;;;;;;;;;;;;;;;;;5020989;28;19925;-74
2023/11/18 05:01:12;;;;;;;;;;;;;;;;;;5008921;28;20293;-73
2023/11/18 05:03:39;;;;;;;;;;;;;;;;;;5002207;28;19921;-74
2023/11/18 05:06:05;;;;;;;;;;;;;;;;;;5000512;28;20411;-73
2023/11/18 05:08:33;;;;;;;;;;;;;;;;;;5007659;28;19921;-73
2023/11/18 05:10:59;;;;;;;;;;;;;;;;;;5007934;28;19917;-72
2023/11/18 05:13:27;;;;;;;;;;;;;;;;;;5008422;28;19927;-72
2023/11/18 05:15:54;;;;;;;;;;;;;;;;;;5007428;28;20248;-74
2023/11/18 05:18:21;;;;;;;;;;;;;;;;;;5016921;28;19917;-72
2023/11/18 05:20:47;;;;;;;;;;;;;;;;;;5014435;28;19925;-72
2023/11/18 05:23:13;;;;;;;;;;;;;;;;;;5021467;28;20325;-72
2023/11/18 05:25:39;;;;;;;;;;;;;;;;;;5006719;28;19925;-72
2023/11/18 05:28:08;;;;;;;;;;;;;;;;;;5012239;28;19917;-72
2023/11/18 05:30:34;;;;;;;;;;;;;;;;;;5008091;28;20129;-72
2023/11/18 05:33:00;;;;;;;;;;;;;;;;;;5006589;28;19928;-72
2023/11/18 05:35:28;;;;;;;;;;;;;;;;;;5001547;28;19927;-72
2023/11/18 05:37:54;;;;;;;;;;;;;;;;;;5002477;28;19917;-72
2023/11/18 05:40:20;;;;;;;;;;;;;;;;;;5001382;28;20346;-72
2023/11/18 05:42:48;;;;;;;;;;;;;;;;;;5016716;28;20244;-72
2023/11/18 05:45:27;;;;;;;;;;;;;;;;;;5001451;28;20039;-73
2023/11/18 05:47:53;;;;;;;;;;;;;;;;;;5000073;28;19917;-74
2023/11/18 05:50:19;;;;;;;;;;;;;;;;;;4999164;28;19921;-71
2023/11/18 05:52:45;;;;;;;;;;;;;;;;;;5018939;28;20818;-72
2023/11/18 05:55:11;;;;;;;;;;;;;;;;;;5006429;28;19970;-72
2023/11/18 05:57:37;;;;;;;;;;;;;;;;;;5001054;28;19970;-75
2023/11/18 06:00:05;;;;;;;;;;;;;;;;;;5004433;28;20200;-72
2023/11/18 06:02:31;;;;;;;;;;;;;;;;;;5004419;28;19921;-74
2023/11/18 06:04:57;;;;;;;;;;;;;;;;;;5002442;28;19998;-74
2023/11/18 06:07:23;;;;;;;;;;;;;;;;;;5001257;28;20762;-72
2023/11/18 06:09:49;;;;;;;;;;;;;;;;;;5003640;28;19928;-72
2023/11/18 06:12:17;;;;;;;;;;;;;;;;;;5006987;28;20217;-73
2023/11/18 06:14:46;;;;;;;;;;;;;;;;;;5020067;28;19924;-72
2023/11/18 06:17:13;;;;;;;;;;;;;;;;;;5007767;28;19990;-72
2023/11/18 06:19:39;;;;;;;;;;;;;;;;;;5000579;28;19921;-73
2023/11/18 06:22:05;;;;;;;;;;;;;;;;;;5004395;28;19929;-72
2023/11/18 06:24:31;;;;;;;;;;;;;;;;;;5002481;28;20107;-72
2023/11/18 06:26:59;;;;;;;;;;;;;;;;;;5007361;28;20452;-73
2023/11/18 06:29:25;;;;;;;;;;;;;;;;;;5003923;28;19969;-72
2023/11/18 06:31:52;;;;;;;;;;;;;;;;;;5006453;28;20054;-73
2023/11/18 06:34:20;;;;;;;;;;;;;;;;;;4999818;28;19917;-72
2023/11/18 06:36:46;;;;;;;;;;;;;;;;;;5004912;28;20331;-73
2023/11/18 06:39:13;;;;;;;;;;;;;;;;;;5006200;28;19923;-72
2023/11/18 06:41:48;;;;;;;;;;;;;;;;;;5000999;28;20662;-73
2023/11/18 06:44:17;;;;;;;;;;;;;;;;;;5006910;28;20481;-72
2023/11/18 06:46:44;;;;;;;;;;;;;;;;;;5005629;28;19944;-72
2023/11/18 06:49:15;;;;;;;;;;;;;;;;;;5005175;28;20114;-72
2023/11/18 06:51:41;;;;;;;;;;;;;;;;;;5002679;28;20457;-72
2023/11/18 06:54:10;;;;;;;;;;;;;;;;;;5019829;28;19921;-72
2023/11/18 06:56:38;;;;;;;;;;;;;;;;;;5003920;28;19929;-73
2023/11/18 06:59:04;;;;;;;;;;;;;;;;;;5003835;28;19925;-72
2023/11/18 07:01:30;;;;;;;;;;;;;;;;;;4998727;28;20307;-72
2023/11/18 07:03:56;;;;;;;;;;;;;;;;;;5015690;28;19924;-72
2023/11/18 07:06:23;;;;;;;;;;;;;;;;;;5003583;28;20378;-73
2023/11/18 07:08:49;;;;;;;;;;;;;;;;;;5001103;28;19924;-72
2023/11/18 07:11:15;;;;;;;;;;;;;;;;;;5005283;28;19968;-72
2023/11/18 07:13:41;;;;;;;;;;;;;;;;;;5001034;28;20390;-72
2023/11/18 07:16:08;;;;;;;;;;;;;;;;;;5006518;28;20429;-73
2023/11/18 07:18:34;;;;;;;;;;;;;;;;;;5002853;28;19924;-73
2023/11/18 07:21:00;;;;;;;;;;;;;;;;;;5000447;28;19921;-73
2023/11/18 07:23:26;;;;;;;;;;;;;;;;;;5000690;28;19921;-73
2023/11/18 07:25:53;;;;;;;;;;;;;;;;;;5004469;28;19949;-72
2023/11/18 07:28:19;;;;;;;;;;;;;;;;;;5001379;28;19944;-73
2023/11/18 07:30:47;;;;;;;;;;;;;;;;;;4997788;28;19918;-72
2023/11/18 07:33:13;;;;;;;;;;;;;;;;;;4997548;28;20377;-74
2023/11/18 07:35:39;;;;;;;;;;;;;;;;;;5014836;28;19921;-74
2023/11/18 07:38:07;;;;;;;;;;;;;;;;;;5001560;28;20367;-73
2023/11/18 07:40:33;;;;;;;;;;;;;;;;;;4998538;28;20418;-74
2023/11/18 07:43:01;;;;;;;;;;;;;;;;;;5014507;28;20593;-72
2023/11/18 07:45:28;;;;;;;;;;;;;;;;;;4997653;28;19957;-73
2023/11/18 07:47:54;;;;;;;;;;;;;;;;;;5005738;28;19998;-72
2023/11/18 07:50:21;;;;;;;;;;;;;;;;;;4995742;28;20398;-73
2023/11/18 07:52:47;;;;;;;;;;;;;;;;;;5006297;28;19978;-74
2023/11/18 07:55:13;;;;;;;;;;;;;;;;;;5004677;28;20240;-71
2023/11/18 07:57:39;;;;;;;;;;;;;;;;;;5003809;28;20309;-72
2023/11/18 08:00:09;;;;;;;;;;;;;;;;;;4999187;28;19925;-74
2023/11/18 08:02:35;;;;;;;;;;;;;;;;;;5007754;28;20369;-72
2023/11/18 08:05:02;;;;;;;;;;;;;;;;;;5007468;28;19921;-73
2023/11/18 08:07:28;;;;;;;;;;;;;;;;;;5011885;28;19956;-72
2023/11/18 08:09:54;;;;;;;;;;;;;;;;;;5008474;28;20402;-73
2023/11/18 08:12:20;;;;;;;;;;;;;;;;;;5004738;28;19921;-73
2023/11/18 08:14:47;;;;;;;;;;;;;;;;;;5008823;28;20160;-73
2023/11/18 08:17:13;;;;;;;;;;;;;;;;;;5008587;28;19917;-73
2023/11/18 08:19:39;;;;;;;;;;;;;;;;;;5005473;28;20782;-73
2023/11/18 08:22:05;;;;;;;;;;;;;;;;;;5004766;28;19928;-74
2023/11/18 08:24:33;;;;;;;;;;;;;;;;;;5020960;28;20392;-72
2023/11/18 08:26:59;;;;;;;;;;;;;;;;;;5009701;28;20247;-72
2023/11/18 08:29:30;;;;;;;;;;;;;;;;;;5007565;28;19917;-72
2023/11/18 08:31:56;;;;;;;;;;;;;;;;;;5007785;28;20374;-72
2023/11/18 08:34:24;;;;;;;;;;;;;;;;;;5003999;28;19921;-72
2023/11/18 08:36:51;;;;;;;;;;;;;;;;;;5010778;28;20378;-72
2023/11/18 08:39:20;;;;;;;;;;;;;;;;;;5007403;28;19918;-72
2023/11/18 08:41:46;;;;;;;;;;;;;;;;;;5008707;28;19917;-72
2023/11/18 08:44:15;;;;;;;;;;;;;;;;;;5007395;28;20500;-73
2023/11/18 08:46:42;;;;;;;;;;;;;;;;;;5006915;28;19943;-72
2023/11/18 08:49:10;;;;;;;;;;;;;;;;;;5006153;28;19951;-72
2023/11/18 08:51:36;;;;;;;;;;;;;;;;;;5020158;28;19913;-72
2023/11/18 08:54:22;;;;;;;;;;;;;;;;;;5007671;28;20294;-71
2023/11/18 08:56:47;;;;;;;;;;;;;;;;;;5025744;28;20072;-70
2023/11/18 08:59:16;;;;;;;;;;;;;;;;;;5009842;28;20294;-72
2023/11/18 09:01:43;;;;;;;;;;;;;;;;;;5004204;28;20007;-71
2023/11/18 09:04:09;;;;;;;;;;;;;;;;;;5005649;28;20164;-71
2023/11/18 09:06:35;;;;;;;;;;;;;;;;;;5000391;28;19929;-71
2023/11/18 09:09:06;;;;;;;;;;;;;;;;;;5008692;28;20405;-70
2023/11/18 09:11:32;;;;;;;;;;;;;;;;;;4997469;28;19917;-73
2023/11/18 09:14:00;;;;;;;;;;;;;;;;;;5006375;28;19921;-71
2023/11/18 09:16:29;;;;;;;;;;;;;;;;;;5001852;28;19917;-71
2023/11/18 09:18:56;;;;;;;;;;;;;;;;;;5007688;28;20327;-72
2023/11/18 09:21:29;;;;;;;;;;;;;;;;;;5003334;28;20382;-72
2023/11/18 09:23:56;;;;;;;;;;;;;;;;;;5007783;28;19935;-72
2023/11/18 09:26:22;;;;;;;;;;;;;;;;;;5002562;28;20354;-72
2023/11/18 09:28:49;;;;;;;;;;;;;;;;;;5010206;28;19990;-71
2023/11/18 09:31:16;;;;;;;;;;;;;;;;;;5003459;28;19917;-72
2023/11/18 09:33:51;;;;;;;;;;;;;;;;;;5001357;28;20445;-73
2023/11/18 09:36:18;;;;;;;;;;;;;;;;;;5003860;28;20056;-70
2023/11/18 09:38:46;;;;;;;;;;;;;;;;;;5001714;28;20011;-72
2023/11/18 09:41:12;;;;;;;;;;;;;;;;;;5005454;28;20686;-70
2023/11/18 09:43:47;;;;;;;;;;;;;;;;;;5006756;28;19928;-70
2023/11/18 09:46:13;;;;;;;;;;;;;;;;;;5009326;28;20058;-69
2023/11/18 09:48:40;;;;;;;;;;;;;;;;;;5006598;28;19998;-71
2023/11/18 09:51:06;;;;;;;;;;;;;;;;;;5006588;28;19921;-69
2023/11/18 09:53:37;;;;;;;;;;;;;;;;;;5003002;28;20567;-71
2023/11/18 09:56:02;;;;;;;;;;;;;;;;;;5007041;28;19917;-69
2023/11/18 09:58:29;;;;;;;;;;;;;;;;;;5006090;28;20385;-69
2023/11/18 10:00:56;;;;;;;;;;;;;;;;;;5010148;28;19921;-70
2023/11/18 10:03:22;;;;;;;;;;;;;;;;;;5003910;28;20268;-70
2023/11/18 10:05:49;;;;;;;;;;;;;;;;;;5010132;28;19928;-70
2023/11/18 10:08:16;;;;;;;;;;;;;;;;;;5008248;28;19972;-71
2023/11/18 10:10:45;;;;;;;;;;;;;;;;;;5011110;28;19995;-71
2023/11/18 10:13:22;;;;;;;;;;;;;;;;;;5002213;28;20253;-72
2023/11/18 10:15:52;;;;;;;;;;;;;;;;;;5008298;28;19918;-72
2023/11/18 10:18:24;;;;;;;;;;;;;;;;;;5003395;28;20015;-72
2023/11/18 10:20:59;;;;;;;;;;;;;;;;;;5005346;28;20488;-72
2023/11/18 10:23:27;;;;;;;;;;;;;;;;;;5001141;28;20357;-72
2023/11/18 10:25:53;;;;;;;;;;;;;;;;;;5010085;28;19928;-72
2023/11/18 10:28:19;;;;;;;;;;;;;;;;;;5004488;28;19993;-73
2023/11/18 10:30:48;;;;;;;;;;;;;;;;;;5004736;28;19921;-71
2023/11/18 10:33:14;;;;;;;;;;;;;;;;;;5002055;28;20719;-71
2023/11/18 10:35:42;;;;;;;;;;;;;;;;;;5012623;28;19984;-71
2023/11/18 10:38:08;;;;;;;;;;;;;;;;;;5005247;28;19975;-72
2023/11/18 10:40:36;;;;;;;;;;;;;;;;;;5006060;28;20284;-71
2023/11/18 10:43:05;;;;;;;;;;;;;;;;;;5002763;28;19929;-73
2023/11/18 10:45:32;;;;;;;;;;;;;;;;;;5001939;28;19979;-72
2023/11/18 10:47:58;;;;;;;;;;;;;;;;;;5004840;28;20449;-72
2023/11/18 10:50:31;;;;;;;;;;;;;;;;;;4997704;28;20075;-73
2023/11/18 10:52:57;;;;;;;;;;;;;;;;;;5020164;28;19974;-71
2023/11/18 10:55:25;;;;;;;;;;;;;;;;;;5000658;28;19920;-71
2023/11/18 10:57:53;;;;;;;;;;;;;;;;;;5005841;28;20028;-71
2023/11/18 11:00:19;;;;;;;;;;;;;;;;;;4999351;28;20073;-71
2023/11/18 11:02:47;;;;;;;;;;;;;;;;;;5000660;28;19921;-72
2023/11/18 11:05:15;;;;;;;;;;;;;;;;;;5006665;28;19943;-73
2023/11/18 11:07:41;;;;;;;;;;;;;;;;;;5016183;28;19917;-72
2023/11/18 11:10:07;;;;;;;;;;;;;;;;;;5000957;28;19939;-71
2023/11/18 11:12:33;;;;;;;;;;;;;;;;;;5001587;28;20732;-71
2023/11/18 11:14:59;;;;;;;;;;;;;;;;;;5000619;28;20057;-71
2023/11/18 11:17:29;;;;;;;;;;;;;;;;;;5005112;28;19944;-72
2023/11/18 11:19:57;;;;;;;;;;;;;;;;;;5001860;28;20209;-72
2023/11/18 11:22:24;;;;;;;;;;;;;;;;;;5013488;28;20433;-71
2023/11/18 11:24:50;;;;;;;;;;;;;;;;;;5005155;28;20459;-71
2023/11/18 11:27:23;;;;;;;;;;;;;;;;;;5006332;28;19969;-72
2023/11/18 11:29:49;;;;;;;;;;;;;;;;;;5002063;28;20384;-72
2023/11/18 11:32:16;;;;;;;;;;;;;;;;;;5000707;28;20271;-72
2023/11/18 11:34:42;;;;;;;;;;;;;;;;;;4993863;28;20016;-72
2023/11/18 11:37:09;;;;;;;;;;;;;;;;;;5004000;28;19917;-71
2023/11/18 11:39:36;;;;;;;;;;;;;;;;;;5008256;28;19917;-73
2023/11/18 11:42:02;;;;;;;;;;;;;;;;;;5004956;28;20501;-71
2023/11/18 11:44:31;;;;;;;;;;;;;;;;;;5020935;28;19927;-71
2023/11/18 11:46:59;;;;;;;;;;;;;;;;;;5009425;28;19925;-72
2023/11/18 11:49:29;;;;;;;;;;;;;;;;;;5006978;28;20330;-72
2023/11/18 11:51:55;;;;;;;;;;;;;;;;;;5021066;28;19924;-73
2023/11/18 11:54:21;;;;;;;;;;;;;;;;;;5021610;28;19922;-71
2023/11/18 11:56:49;;;;;;;;;;;;;;;;;;5016945;28;19917;-72
2023/11/18 11:59:15;;;;;;;;;;;;;;;;;;5007394;28;19971;-73
2023/11/18 12:01:46;;;;;;;;;;;;;;;;;;5004879;28;20012;-73
2023/11/18 12:04:20;;;;;;;;;;;;;;;;;;5010336;28;19917;-72
2023/11/18 12:06:47;;;;;;;;;;;;;;;;;;5006428;28;19928;-72
2023/11/18 12:09:19;;;;;;;;;;;;;;;;;;5012441;28;20293;-71
2023/11/18 12:11:48;;;;;;;;;;;;;;;;;;5006268;28;19988;-71
2023/11/18 12:16:49;;;;;;;;;;;;;;;;;;5006934;28;19917;-72
2023/11/18 12:19:15;;;;;;;;;;;;;;;;;;5011689;28;20050;-72
2023/11/18 12:21:41;;;;;;;;;;;;;;;;;;5002824;28;20309;-71
2023/11/18 12:24:08;;;;;;;;;;;;;;;;;;5006688;28;19949;-71
2023/11/18 12:26:34;;;;;;;;;;;;;;;;;;5005061;28;20312;-71
2023/11/18 12:29:00;;;;;;;;;;;;;;;;;;5006717;28;20016;-72
2023/11/18 12:31:26;;;;;;;;;;;;;;;;;;5000106;28;19927;-71
2023/11/18 12:33:52;;;;;;;;;;;;;;;;;;5007743;28;19924;-71
2023/11/18 12:36:18;;;;;;;;;;;;;;;;;;5003711;28;19921;-72
2023/11/18 12:38:47;;;;;;;;;;;;;;;;;;5024044;28;19917;-72
2023/11/18 12:41:13;;;;;;;;;;;;;;;;;;5004499;28;19917;-72
2023/11/18 12:43:40;;;;;;;;;;;;;;;;;;5005300;28;19921;-72
2023/11/18 12:46:06;;;;;;;;;;;;;;;;;;5017845;28;19928;-71
2023/11/18 12:48:32;;;;;;;;;;;;;;;;;;5001941;28;19924;-72
2023/11/18 12:50:58;;;;;;;;;;;;;;;;;;5011533;28;20224;-73
2023/11/18 12:53:25;;;;;;;;;;;;;;;;;;5004845;28;20336;-71
2023/11/18 12:55:52;;;;;;;;;;;;;;;;;;5011078;28;19923;-72
2023/11/18 12:58:18;;;;;;;;;;;;;;;;;;5007102;28;20132;-71
2023/11/18 13:00:46;;;;;;;;;;;;;;;;;;5008596;28;20121;-73
2023/11/18 13:03:15;;;;;;;;;;;;;;;;;;5010526;28;20359;-71
2023/11/18 13:05:41;;;;;;;;;;;;;;;;;;5003844;28;19921;-72
2023/11/18 13:08:07;;;;;;;;;;;;;;;;;;5000920;28;20090;-73
2023/11/18 13:10:33;;;;;;;;;;;;;;;;;;5006966;28;19921;-73
2023/11/18 13:13:00;;;;;;;;;;;;;;;;;;5006529;28;19917;-72
2023/11/18 13:15:26;;;;;;;;;;;;;;;;;;5003743;28;19921;-72
2023/11/18 13:17:52;;;;;;;;;;;;;;;;;;5008574;28;20194;-72
2023/11/18 13:20:24;;;;;;;;;;;;;;;;;;5008134;28;20014;-72
2023/11/18 13:22:50;;;;;;;;;;;;;;;;;;5009706;28;20213;-72
2023/11/18 13:25:17;;;;;;;;;;;;;;;;;;5021067;28;20302;-72
2023/11/18 13:27:43;;;;;;;;;;;;;;;;;;5007165;28;20016;-72
2023/11/18 13:30:13;;;;;;;;;;;;;;;;;;5008166;28;20301;-72
2023/11/18 13:32:39;;;;;;;;;;;;;;;;;;5005395;28;19921;-73
2023/11/18 13:35:07;;;;;;;;;;;;;;;;;;5007129;28;20501;-73
2023/11/18 13:37:33;;;;;;;;;;;;;;;;;;5005942;28;20363;-73
2023/11/18 13:39:59;;;;;;;;;;;;;;;;;;5008351;28;19917;-72
2023/11/18 13:42:28;;;;;;;;;;;;;;;;;;5004295;28;19956;-69
2023/11/18 13:44:54;;;;;;;;;;;;;;;;;;5008900;28;19965;-70
2023/11/18 13:47:22;;;;;;;;;;;;;;;;;;5002243;28;20012;-68
2023/11/18 13:49:50;;;;;;;;;;;;;;;;;;5002902;28;20325;-70
2023/11/18 13:52:16;;;;;;;;;;;;;;;;;;4999238;28;19921;-70
2023/11/18 13:54:44;;;;;;;;;;;;;;;;;;5007452;28;19921;-70
2023/11/18 13:57:11;;;;;;;;;;;;;;;;;;5002046;28;20417;-68
2023/11/18 13:59:37;;;;;;;;;;;;;;;;;;4992645;28;19925;-68
2023/11/18 14:02:04;;;;;;;;;;;;;;;;;;5002455;28;19917;-69
2023/11/18 14:04:30;;;;;;;;;;;;;;;;;;5013420;28;19928;-71
2023/11/18 14:06:56;;;;;;;;;;;;;;;;;;5001190;28;20323;-69
2023/11/18 14:09:24;;;;;;;;;;;;;;;;;;4997739;28;19917;-68
2023/11/18 14:11:50;;;;;;;;;;;;;;;;;;5003765;28;20174;-69
2023/11/18 14:14:17;;;;;;;;;;;;;;;;;;5004809;28;20201;-69
2023/11/18 14:16:43;;;;;;;;;;;;;;;;;;5012791;28;20513;-69
2023/11/18 14:19:10;;;;;;;;;;;;;;;;;;4999902;28;19995;-69
2023/11/18 14:21:36;;;;;;;;;;;;;;;;;;5001418;28;20727;-72
2023/11/18 14:24:03;;;;;;;;;;;;;;;;;;5000356;28;20616;-69
2023/11/18 14:26:30;;;;;;;;;;;;;;;;;;5011456;28;19936;-70
2023/11/18 14:28:56;;;;;;;;;;;;;;;;;;5013446;28;19917;-70
2023/11/18 14:31:22;;;;;;;;;;;;;;;;;;4993336;28;19999;-69
2023/11/18 14:33:48;;;;;;;;;;;;;;;;;;4994864;28;19924;-71
2023/11/18 14:36:14;;;;;;;;;;;;;;;;;;5003469;28;19918;-69
2023/11/18 14:38:40;;;;;;;;;;;;;;;;;;4996168;28;20190;-68
2023/11/18 14:41:07;;;;;;;;;;;;;;;;;;4999579;28;19947;-70
2023/11/18 14:43:33;;;;;;;;;;;;;;;;;;4992584;28;20236;-70
2023/11/18 14:45:59;;;;;;;;;;;;;;;;;;4996223;28;19925;-70
2023/11/18 14:51:01;;;;;;;;;;;;;;;;;;5005496;22;20445;-73
2023/11/18 14:53:27;;;;;;;;;;;;;;;;;;4959647;28;20048;-73
2023/11/18 14:55:53;;;;;;;;;;;;;;;;;;4981936;28;20640;-73
2023/11/18 14:58:19;;;;;;;;;;;;;;;;;;4978328;28;19947;-74
2023/11/18 15:00:47;;;;;;;;;;;;;;;;;;4976387;28;19921;-71
2023/11/18 15:03:13;;;;;;;;;;;;;;;;;;4981722;28;19925;-73
2023/11/18 15:05:39;;;;;;;;;;;;;;;;;;4980216;28;21174;-72
2023/11/18 15:08:09;;;;;;;;;;;;;;;;;;4983791;28;20371;-74
2023/11/18 15:10:37;;;;;;;;;;;;;;;;;;4976857;28;19990;-74
2023/11/18 15:13:03;;;;;;;;;;;;;;;;;;4983423;28;19964;-73
2023/11/18 15:15:32;;;;;;;;;;;;;;;;;;4974026;28;20032;-74
2023/11/18 15:17:58;;;;;;;;;;;;;;;;;;4974379;28;20072;-74
2023/11/18 15:20:24;;;;;;;;;;;;;;;;;;4974309;28;20473;-73
2023/11/18 15:22:50;;;;;;;;;;;;;;;;;;4971593;28;19989;-72
2023/11/18 15:25:17;;;;;;;;;;;;;;;;;;4977443;28;20570;-73
2023/11/18 15:27:44;;;;;;;;;;;;;;;;;;4973075;28;20545;-73
2023/11/18 15:30:10;;;;;;;;;;;;;;;;;;4979670;28;19924;-72
2023/11/18 15:32:36;;;;;;;;;;;;;;;;;;4973523;28;20120;-72
2023/11/18 15:35:02;;;;;;;;;;;;;;;;;;4962315;28;19983;-73
2023/11/18 15:37:29;;;;;;;;;;;;;;;;;;4970841;28;20252;-73
2023/11/18 15:39:55;;;;;;;;;;;;;;;;;;4979656;28;19918;-73
2023/11/18 15:42:21;;;;;;;;;;;;;;;;;;4980578;28;20395;-73
2023/11/18 15:44:47;;;;;;;;;;;;;;;;;;4974395;28;19917;-73
2023/11/18 15:47:13;;;;;;;;;;;;;;;;;;4965304;28;20051;-74
2023/11/18 15:49:39;;;;;;;;;;;;;;;;;;4981113;28;20473;-73
2023/11/18 15:52:07;;;;;;;;;;;;;;;;;;4981087;28;19917;-73
2023/11/18 15:54:33;;;;;;;;;;;;;;;;;;4960124;28;19988;-73
2023/11/18 15:56:59;;;;;;;;;;;;;;;;;;4976578;28;19957;-72
2023/11/18 15:59:26;;;;;;;;;;;;;;;;;;4977749;28;20032;-74
2023/11/18 16:01:52;;;;;;;;;;;;;;;;;;4983079;28;20488;-74
2023/11/18 16:04:18;;;;;;;;;;;;;;;;;;4981042;28;19924;-72
2023/11/18 16:06:44;;;;;;;;;;;;;;;;;;4972451;28;20187;-73
2023/11/18 16:09:10;;;;;;;;;;;;;;;;;;4977914;28;20145;-73
2023/11/18 16:11:36;;;;;;;;;;;;;;;;;;4958724;28;20402;-74
2023/11/18 16:14:03;;;;;;;;;;;;;;;;;;4975896;28;20533;-73
2023/11/18 16:16:28;;;;;;;;;;;;;;;;;;4977239;28;19917;-73
2023/11/18 16:18:55;;;;;;;;;;;;;;;;;;4983551;28;20122;-74
2023/11/18 16:21:21;;;;;;;;;;;;;;;;;;4976867;28;19928;-73
2023/11/18 16:23:47;;;;;;;;;;;;;;;;;;4982915;28;20018;-73
2023/11/18 16:26:13;;;;;;;;;;;;;;;;;;4983488;28;20594;-73
2023/11/18 16:28:39;;;;;;;;;;;;;;;;;;4963924;28;20788;-73
2023/11/18 16:31:05;;;;;;;;;;;;;;;;;;4981358;28;20463;-74
2023/11/18 16:33:32;;;;;;;;;;;;;;;;;;4979512;28;19917;-73
2023/11/18 16:35:58;;;;;;;;;;;;;;;;;;4984779;28;20654;-73
2023/11/18 16:38:24;;;;;;;;;;;;;;;;;;4979700;28;19944;-73
2023/11/18 16:40:51;;;;;;;;;;;;;;;;;;4978678;28;20182;-73
2023/11/18 16:43:17;;;;;;;;;;;;;;;;;;4982116;28;20001;-73
2023/11/18 16:45:43;;;;;;;;;;;;;;;;;;4980559;28;19921;-73
2023/11/18 16:48:09;;;;;;;;;;;;;;;;;;4980048;28;19922;-73